メインページ
METAR-TAF:

METAR-TAF

空港 :

ヤクーツク, ロシア

ヤクーツク空港

緯度: 62-01N, 経度: 129-43E, 海抜: 103m

現時点の気象観測

当レポートは33分前の12:30(UTC)に作成
北西の風 4kt
気温 -33°C
湿度 67%
気圧 1012 hPa
視程10km以上
1,500メートル以下は雲なし、積乱雲なし

METAR: UEEE 241230Z 32002MPS CAVOK M33/M37 Q1012 R23L/490150 NOSIG RMK QFE750

時間: 22:03 (13:03 UTC)

予報

当レポートは2時間3分前の11:00(UTC)に作成
予報は24日の 12時(UTC)から 25日の 18時(UTC)まで有効
北/北西の風 6kt
視程: 2100m
高度7000ftの曇り
小雪, 靄
24日の 12時(UTC)から 25日の 03時(UTC)まで一時的に
視程: 0300m
高度300ftの

TAF: UEEE 241100Z 2412/2518 34003MPS 2100 -SN BR OVC070 TEMPO 2412/2503 0300 FG VV003

4,000以上の空港の気象観測と天気予報(METAR報とTAF報)

利用可能な観測所は地図上に黄色い丸と赤い丸で示す。

丸の上にカーソルを重ねると観測所名を参照できる。

次にクリックすると気象観測と天気予報を参照できる。

マップの切り替え:黒色「×」印の緑ボタンをクリックして拡大、「-」印の緑ボタンをクリックして縮小、緑色の三角印をクリックして隣りの地図に切り替え


METAR-TAF: